Tiempo atmosférico en la estación meteorológica de Noia, A Coruña (128 m.)



Fecha
DESCASC
Temp. máxima en grados centígrados (hora)
DESCASC
Temp. mínima en grados centígrados (hora)
DESCASC
Temp. media en grados centígrados
DESCASC
Racha de viento máxima en m/sg (hora)
DESCASC
Velocidad máxima media en intervalos de 10 minutos(hora)
DESCASC
Precipitaciones diarias en mm
DESCASC
Precipitaciones de 00:00 a 06:00 en mm
DESCASC
Precipitaciones de 06:00 a 12:00 en mm
DESCASC
Precipitaciones de 12:00 a 18:00 en mm
DESCASC
Precipitaciones de 18:00 a 24:00 en mm
DESCASC
25-01-2020 12.9 (13:20) 5.6 (09:10) 9.2 4.44 (15:40) 1.39 (02:30) 0 0 0 0 0
24-01-2020 13.5 (15:20) 6.4 (09:20) 10 3.61 (04:30) 1.39 (04:10) 0 0 0 0 0
23-01-2020 13.8 (15:30) 5 (09:40) 9.4 4.44 (14:30) 1.94 (14:30) 0 0 0 0 0
22-01-2020 14.2 (13:20) 8.3 (00:00) 11.3 9.72 (14:20) 2.78 (13:30) 2 0 0 0 2
21-01-2020 11.5 (12:50) 5.9 (00:00) 8.7 13.06 (12:30) 3.89 (04:50) 0 0 0 0 0
20-01-2020 10.3 (15:00) 5.6 (00:00) 8 17.78 (16:20) 5.83 (16:20) 0.2 0 0 0.2 0
19-01-2020 11.7 (14:40) 6.3 (00:00) 9 9.72 (07:00) 2.5 (06:10) 0 0 0 0 0
18-01-2020 13.8 (11:00) 8.6 (00:00) 11.2 10 (11:10) 3.89 (08:30) 0 0 0 0 0
17-01-2020 10.9 (12:40) 6.6 (00:00) 8.7 6.67 (02:20) 1.39 (05:30) 0.8 0.6 0.2 0 0
16-01-2020 14.3 (08:10) 9.3 (00:00) 11.8 20.83 (06:40) 7.5 (07:50) 110.8 4.6 30.2 74.6 1.4
15-01-2020 11.2 (11:00) 5.6 (00:00) 8.4 -- (--) 15 (03:00) -- 23.4 1.6 0 --
14-01-2020 9.8 (23:59) 7.9 (00:00) 8.9 -- (--) 12.22 (14:40) 31.2 14.8 8 2.8 5.6
13-01-2020 8.5 (23:50) 5.5 (00:00) 7 -- (--) 11.67 (13:30) 18.8 1.2 1.6 2.4 13.6
12-01-2020 11.4 (14:50) 4 (00:00) 7.7 -- (--) 5.28 (20:00) 0.4 0 0.4 0 0
11-01-2020 11.9 (14:50) 2.2 (00:00) 7 -- (--) 5 (00:10) 0 0 0 0 0
10-01-2020 -- (--) -- (--) -- -- (--) 6.11 (10:30) -- 0.2 0.2 -- 0
09-01-2020 13.4 (12:30) 7.2 (00:00) 10.3 11.11 (10:30) 3.33 (08:50) 2.4 0.6 1.6 0 0.2
08-01-2020 12.1 (14:00) 9.8 (00:00) 11 3.89 (23:10) 1.94 (22:50) 1.8 0.2 0.6 0.2 0.8
07-01-2020 10.5 (19:40) 5.1 (00:00) 7.8 3.89 (16:40) 1.67 (16:30) 0 0 0 0 0
06-01-2020 11.3 (14:50) 4.1 (00:00) 7.7 5.28 (14:20) 2.22 (13:20) 0 0 0 0 0
05-01-2020 10.9 (15:30) 2.2 (00:00) 6.5 3.89 (02:00) 1.39 (01:50) 0 0 0 0 0
04-01-2020 11.6 (16:30) 5.8 (00:00) 8.7 4.72 (13:00) 1.67 (13:30) 0 0 0 0 0
03-01-2020 13.2 (16:00) 8.1 (00:00) 10.7 7.5 (07:20) 3.33 (03:10) 11.6 9.4 2.2 0 0
02-01-2020 11.3 (23:10) 3.4 (00:00) 7.4 10.28 (15:50) 3.89 (15:40) 0 0 0 0 0
01-01-2020 8.4 (14:40) 2.2 (00:00) 5.3 2.78 (16:00) 0.83 (00:40) 0 0 0 0 0
31-12-2019 -- (--) -- (--) -- -- (--) -- (--) -- -- -- -- 0
30-12-2019 13.9 (13:00) 6.2 (00:00) 10 -- (--) -- (--) 0 0 0 0 0
29-12-2019 17.4 (13:20) 9 (00:00) 13.2 3.89 (01:10) 1.67 (01:20) 0 0 0 0 0
28-12-2019 16 (14:50) 6.2 (00:00) 11.1 3.89 (23:10) 1.67 (22:50) 0 0 0 0 0

Gráficas

Temp. máximas Temp. mínimas Temp. medias Precipitaciones Rachas de viento máximas Velocidades máximas media en intervalos de 10 minutos

Datos horarios

Fecha y hora oficial Temperatura (ºC) Velocidad del viento (km/h) Dirección del viento Racha (km/h) Dirección de racha Precipitación (mm) Presión (hPa) Tendencia (hPa) Humedad (%)
2020-01-26 23:00:00 11.7 6 Sudoeste 33 Sudoeste 0.2 -- -- 93
2020-01-26 22:00:00 11.7 5 Sur 34 Sudoeste 0.2 -- -- 91
2020-01-26 21:00:00 12.3 10 Sudoeste 31 Sudoeste 0 -- -- 85
2020-01-26 20:00:00 11.6 9 Sudoeste 41 Sur 1 -- -- 96
2020-01-26 19:00:00 11.3 2 Sudoeste 16 Sudoeste 1 -- -- 96
2020-01-26 18:00:00 12 5 Sudoeste 23 Sur 0.2 -- -- 88
2020-01-26 17:00:00 12.7 6 Sur 32 Sudoeste 0 -- -- 82
2020-01-26 16:00:00 13.1 7 Sudoeste 31 Sudoeste 0 -- -- 79
2020-01-26 15:00:00 13.2 8 Sudoeste 31 Sur 0 -- -- 78
2020-01-26 14:00:00 12.7 8 Sur 23 Sur 0 -- -- 80
2020-01-26 13:00:00 12.8 7 Sur 24 Sur 0 -- -- 84
2020-01-26 12:00:00 11.9 5 Sudoeste 20 Sur 0 -- -- 88
2020-01-26 11:00:00 10.1 4 Sur 21 Oeste 0 -- -- 100
2020-01-26 10:00:00 9.4 5 Sudeste 11 Sudeste 0 -- -- 100
2020-01-26 09:00:00 8.6 5 Sudeste 10 Sudeste 0.2 -- -- 100
2020-01-26 08:00:00 8.5 6 Sudeste 10 Sudeste 0 -- -- 100
2020-01-26 07:00:00 8.2 5 Sudeste 12 Sudeste 0 -- -- 100
2020-01-26 06:00:00 8.4 5 Sudeste 10 Sudeste 0 -- -- 100
2020-01-26 05:00:00 8.5 5 Sudeste 12 Sur 0.4 -- -- 100
2020-01-26 04:00:00 8.6 5 Sudeste 12 Sudeste 0 -- -- 100
2020-01-26 03:00:00 8.3 6 Sudeste 12 Sur 0 -- -- 99
2020-01-26 02:00:00 7.8 4 Sudeste 7 Sudeste 0 -- -- 98
2020-01-26 01:00:00 7.6 4 Sudeste 7 Sudeste 0 -- -- 98
2020-01-26 00:00:00 7.7 0 Calma 4 Este 0 -- -- 98
2020-01-25 23:00:00 7.5 0 Calma 7 Sudeste 0 -- -- 97
2020-01-25 22:00:00 7.9 0 Calma 3 Sudeste 0 -- -- 97
2020-01-25 21:00:00 8.4 2 Nordeste 3 Nordeste 0 -- -- 95
2020-01-25 20:00:00 9.7 0 Calma 6 Sudoeste 0 -- -- 92
2020-01-25 19:00:00 10.2 0 Calma 7 Sudoeste 0 -- -- 91
2020-01-25 18:00:00 11.5 0 Calma 10 Oeste 0 -- -- 85
2020-01-25 17:00:00 12.3 2 Noroeste 11 Oeste 0 -- -- 84
2020-01-25 16:00:00 12.9 2 Noroeste 16 Oeste 0 -- -- 77
2020-01-25 15:00:00 12.1 4 Noroeste 15 Oeste 0 -- -- 79
2020-01-25 14:00:00 12.3 3 Oeste 9 Oeste 0 -- -- 71
2020-01-25 13:00:00 12.7 0 Calma 3 Oeste 0 -- -- 75
2020-01-25 12:00:00 10.4 0 Calma 4 Sur 0 -- -- 85
2020-01-25 11:00:00 7.1 0 Calma 2 Sudeste 0 -- -- 94
2020-01-25 10:00:00 6 0 Calma 6 Este 0 -- -- 94
2020-01-25 09:00:00 5.7 0 Calma 4 Este 0 -- -- 94
2020-01-25 08:00:00 6.7 0 Calma 5 Este 0 -- -- 91
2020-01-25 07:00:00 7 0 Calma 7 Nordeste 0 -- -- 90
2020-01-25 06:00:00 6.8 0 Calma 7 Nordeste 0 -- -- 91
2020-01-25 05:00:00 7.6 2 Nordeste 12 Nordeste 0 -- -- 88
2020-01-25 04:00:00 7.1 4 Nordeste 10 Este 0 -- -- 92
2020-01-25 03:00:00 7.4 3 Este 12 Nordeste 0 -- -- 90
2020-01-25 02:00:00 7 2 Este 8 Nordeste 0 -- -- 91
2020-01-25 01:00:00 7.3 4 Este 9 Este 0 -- -- 92
2020-01-25 00:00:00 7.6 3 Este 10 Norte 0 -- -- 91
2020-01-24 23:00:00 7.7 0 Calma 9 Sudeste 0 -- -- 92
2020-01-24 22:00:00 7.8 0 Calma 3 Sudeste 0 -- -- 92
2020-01-24 21:00:00 8.4 0 Calma 5 Nordeste 0 -- -- 90
2020-01-24 20:00:00 9 2 Nordeste 4 Nordeste 0 -- -- 86
2020-01-24 19:00:00 9.9 2 Nordeste 5 Noroeste 0 -- -- 82
2020-01-24 18:00:00 11.5 0 Calma 6 Noroeste 0 -- -- 77
2020-01-24 17:00:00 12.7 0 Calma 10 Noroeste 0 -- -- 71
2020-01-24 16:00:00 13.4 0 Calma 9 Oeste 0 -- -- 70
2020-01-24 15:00:00 13.4 0 Calma 6 Oeste 0 -- -- 71
2020-01-24 14:00:00 12.9 2 Sur 5 Norte 0 -- -- 73
2020-01-24 13:00:00 11.6 0 Calma 5 Este 0 -- -- 77
2020-01-24 12:00:00 10.7 0 Calma 9 Este 0 -- -- 84
2020-01-24 11:00:00 8.2 0 Calma 5 Nordeste 0 -- -- 90
2020-01-24 10:00:00 6.8 0 Calma 9 Este 0 -- -- 89
2020-01-24 09:00:00 6.8 4 Este 9 Este 0 -- -- 87
2020-01-24 08:00:00 6.9 3 Sudeste 8 Sudeste 0 -- -- 87
2020-01-24 07:00:00 7.2 2 Este 8 Este 0 -- -- 85
2020-01-24 06:00:00 7.2 0 Calma 9 Este 0 -- -- 88
2020-01-24 05:00:00 7.8 4 Sudeste 13 Este 0 -- -- 86
2020-01-24 04:00:00 8 3 Nordeste 8 Este 0 -- -- 88
2020-01-24 03:00:00 8.7 3 Este 9 Este 0 -- -- 83
2020-01-24 02:00:00 8.9 5 Este 10 Nordeste 0 -- -- 82
2020-01-24 01:00:00 8.2 0 Calma 8 Este 0 -- -- 86
2020-01-24 00:00:00 8.1 2 Este 5 Este 0 -- -- 87
2020-01-23 23:00:00 8 0 Calma 4 Sur 0 -- -- 87
2020-01-23 22:00:00 7.4 2 Este 4 Este 0 -- -- 90
2020-01-23 21:00:00 7.7 0 Calma 6 Norte 0 -- -- 91
2020-01-23 20:00:00 8.5 3 Este 5 Este 0 -- -- 88
2020-01-23 19:00:00 9.7 0 Calma 4 Nordeste 0 -- -- 81
2020-01-23 18:00:00 12 0 Calma 4 Oeste 0 -- -- 78
2020-01-23 17:00:00 13.1 0 Calma 8 Sur 0 -- -- 63
2020-01-23 16:00:00 13.8 4 Sudeste 14 Sur 0 -- -- 58
2020-01-23 15:00:00 13.5 6 Sudeste 16 Sudeste 0 -- -- 60
2020-01-23 14:00:00 12.2 2 Nordeste 5 Nordeste 0 -- -- 70
2020-01-23 13:00:00 11.4 0 Calma 4 Noroeste 0 -- -- 76
2020-01-23 12:00:00 9.9 0 Calma 9 Norte 0 -- -- 82
2020-01-23 11:00:00 7.2 3 Nordeste 6 Nordeste 0 -- -- 91
2020-01-23 10:00:00 5.3 3 Nordeste 6 Nordeste 0 -- -- 96
2020-01-23 09:00:00 5.4 2 Norte 5 Nordeste 0 -- -- 95
2020-01-23 08:00:00 5.6 0 Calma 10 Este 0 -- -- 94
2020-01-23 07:00:00 5.6 2 Norte 10 Nordeste 0 -- -- 97
2020-01-23 06:00:00 6.1 3 Nordeste 7 Nordeste 0 -- -- 97
2020-01-23 05:00:00 6.9 0 Calma 5 Sudeste 0 -- -- 96
2020-01-23 04:00:00 7.3 0 Calma 8 Nordeste 0 -- -- 96
2020-01-23 03:00:00 8.3 3 Este 10 Sur 0 -- -- 95
2020-01-23 02:00:00 8.6 0 Calma 8 Norte 0 -- -- 97
2020-01-23 01:00:00 8.8 3 Norte 10 Norte 0 -- -- 98
2020-01-23 00:00:00 9.1 0 Calma 8 Nordeste 0 -- -- 97
2020-01-22 23:00:00 9.4 2 Nordeste 6 Sudeste 0.8 -- -- 94
2020-01-22 22:00:00 10 3 Este 16 Norte 1.2 -- -- 89
2020-01-22 21:00:00 10.9 3 Norte 17 Nordeste 0 -- -- 79
2020-01-22 20:00:00 11 3 Nordeste 19 Norte 0 -- -- 77
2020-01-22 19:00:00 11.6 7 Este 21 Nordeste 0 -- -- 76
2020-01-22 18:00:00 12.2 4 Nordeste 21 Nordeste 0 -- -- 75
2020-01-22 17:00:00 12.8 5 Este 26 Sudeste 0 -- -- 71
2020-01-22 16:00:00 13 8 Nordeste 33 Nordeste 0 -- -- 71
2020-01-22 15:00:00 13.7 8 Nordeste 35 Este 0 -- -- 68
2020-01-22 14:00:00 13.3 8 Este 34 Este 0 -- -- 68
2020-01-22 13:00:00 13.8 8 Nordeste 31 Este 0 -- -- 68
2020-01-22 12:00:00 13 4 Norte 30 Norte 0 -- -- 70
2020-01-22 11:00:00 12 8 Este 28 Este 0 -- -- 72
2020-01-22 10:00:00 11.1 6 Este 24 Este 0 -- -- 75
2020-01-22 09:00:00 11.1 8 Este 32 Nordeste 0 -- -- 72
2020-01-22 08:00:00 11 9 Este 28 Sudeste 0 -- -- 72
2020-01-22 07:00:00 10.7 7 Este 30 Nordeste 0 -- -- 73
2020-01-22 06:00:00 10.1 6 Nordeste 27 Este 0 -- -- 74
2020-01-22 05:00:00 9.5 9 Nordeste 28 Nordeste 0 -- -- 74
2020-01-22 04:00:00 9 4 Nordeste 24 Nordeste 0 -- -- 72
2020-01-22 03:00:00 8.9 4 Norte 19 Nordeste 0 -- -- 71
2020-01-22 02:00:00 8.4 3 Norte 18 Sudeste 0 -- -- 73
2020-01-22 01:00:00 8.3 2 Norte 23 Nordeste 0 -- -- 74
2020-01-22 00:00:00 8.3 4 Este 28 Nordeste 0 -- -- 73
2020-01-21 23:00:00 8.6 6 Nordeste 22 Sur 0 -- -- 72
2020-01-21 22:00:00 8.8 3 Noroeste 30 Este 0 -- -- 72
2020-01-21 21:00:00 9 10 Este 34 Este 0 -- -- 71
2020-01-21 20:00:00 8.8 5 Noroeste 28 Sudeste 0 -- -- 73
2020-01-21 19:00:00 8.9 8 Este 40 Este 0 -- -- 71
2020-01-21 18:00:00 9 5 Nordeste 33 Este 0 -- -- 72
2020-01-21 17:00:00 9.2 6 Norte 24 Este 0 -- -- 71
2020-01-21 16:00:00 9.6 7 Nordeste 37 Este 0 -- -- 69
2020-01-21 15:00:00 11 14 Este 42 Este 0 -- -- 61
2020-01-21 14:00:00 11.1 13 Este 42 Nordeste 0 -- -- 60
2020-01-21 13:00:00 11.5 9 Sudeste 47 Sudeste 0 -- -- 60
2020-01-21 12:00:00 10.7 14 Este 45 Este 0 -- -- 62
2020-01-21 11:00:00 8.2 6 Este 22 Norte 0 -- -- 72
2020-01-21 10:00:00 7 4 Noroeste 21 Nordeste 0 -- -- 77
2020-01-21 09:00:00 6.7 6 Nordeste 30 Nordeste 0 -- -- 76
2020-01-21 08:00:00 6 2 Noroeste 19 Noroeste 0 -- -- 80
2020-01-21 07:00:00 5.9 3 Noroeste 21 Nordeste 0 -- -- 77
2020-01-21 06:00:00 6.4 3 Norte 31 Este 0 -- -- 71
2020-01-21 05:00:00 7 14 Este 38 Sudeste 0 -- -- 66
2020-01-21 04:00:00 6.8 10 Este 36 Sudeste 0 -- -- 66
2020-01-21 03:00:00 6.5 7 Este 30 Este 0 -- -- 66
2020-01-21 02:00:00 6.2 4 Este 29 Este 0 -- -- 65
2020-01-21 01:00:00 6 5 Nordeste 19 Este 0 -- -- 67
2020-01-21 00:00:00 6.2 4 Oeste 27 Nordeste 0 -- -- 67
2020-01-20 23:00:00 6.5 9 Este 34 Nordeste 0 -- -- 63
2020-01-20 22:00:00 6.1 4 Norte 25 Nordeste 0 -- -- 63
2020-01-20 21:00:00 6.7 6 Noroeste 37 Nordeste 0 -- -- 62
2020-01-20 20:00:00 7.3 12 Este 44 Este 0 -- -- 57
2020-01-20 19:00:00 7.9 10 Nordeste 59 Nordeste 0 -- -- 57
2020-01-20 18:00:00 8.8 12 Este 47 Nordeste 0 -- -- 54
2020-01-20 17:00:00 9.4 14 Este 64 Sudeste 0 -- -- 52
2020-01-20 16:00:00 9.8 17 Este 42 Nordeste 0 -- -- 51
2020-01-20 15:00:00 10.3 17 Este 49 Sudeste 0 -- -- 47
2020-01-20 14:00:00 10 14 Este 52 Este 0 -- -- 52
2020-01-20 13:00:00 10 13 Este 50 Nordeste 0.2 -- -- 51
2020-01-20 12:00:00 8.9 9 Este 35 Este 0 -- -- 59
2020-01-20 11:00:00 7.2 5 Norte 29 Nordeste 0 -- -- 68
2020-01-20 10:00:00 6.4 5 Este 21 Sudeste 0 -- -- 73
2020-01-20 09:00:00 5.7 2 Noroeste 19 Nordeste 0 -- -- 80
2020-01-20 08:00:00 5.9 2 Norte 14 Sudeste 0 -- -- 78
2020-01-20 07:00:00 5.6 2 Noroeste 9 Este 0 -- -- 82
2020-01-20 06:00:00 6.3 2 Nordeste 17 Nordeste 0 -- -- 74
2020-01-20 05:00:00 6.9 4 Sudeste 26 Este 0 -- -- 71
2020-01-20 04:00:00 6.9 3 Nordeste 18 Este 0 -- -- 71
2020-01-20 03:00:00 7.3 5 Este 24 Nordeste 0 -- -- 68
2020-01-20 02:00:00 6.9 3 Norte 14 Este 0 -- -- 67
2020-01-20 01:00:00 6.6 2 Oeste 24 Este 0 -- -- 69
2020-01-20 00:00:00 6.6 4 Nordeste 15 Norte 0 -- -- 69
2020-01-19 23:00:00 6.4 2 Noroeste 20 Nordeste 0 -- -- 71
2020-01-19 22:00:00 6.3 0 Calma 10 Norte 0 -- -- 72
2020-01-19 21:00:00 7.2 3 Sudeste 27 Este 0 -- -- 68
2020-01-19 20:00:00 8 5 Nordeste 26 Nordeste 0 -- -- 62
2020-01-19 19:00:00 8.5 4 Norte 18 Sudeste 0 -- -- 63
2020-01-19 18:00:00 9.7 3 Nordeste 22 Nordeste 0 -- -- 62
2020-01-19 17:00:00 10.9 6 Nordeste 24 Este 0 -- -- 59
2020-01-19 16:00:00 11.4 3 Norte 31 Este 0 -- -- 60
2020-01-19 15:00:00 11.7 5 Este 31 Nordeste 0 -- -- 56
2020-01-19 14:00:00 11.3 3 Sur 21 Este 0 -- -- 63
2020-01-19 13:00:00 11.4 4 Este 30 Nordeste 0 -- -- 64
2020-01-19 12:00:00 10.8 7 Este 31 Este 0 -- -- 68
2020-01-19 11:00:00 9.2 6 Norte 24 Este 0 -- -- 75
2020-01-19 10:00:00 8.4 5 Norte 27 Oeste 0 -- -- 78
2020-01-19 09:00:00 8.6 5 Nordeste 23 Nordeste 0 -- -- 80
2020-01-19 08:00:00 9 8 Nordeste 33 Nordeste 0 -- -- 81
2020-01-19 07:00:00 9.1 6 Norte 35 Norte 0 -- -- 85
2020-01-19 06:00:00 9.2 5 Noroeste 31 Noroeste 0 -- -- 87
2020-01-19 05:00:00 9.3 4 Sudeste 25 Norte 0 -- -- 90
2020-01-19 04:00:00 9.5 3 Noroeste 23 Este 0 -- -- 96
2020-01-19 03:00:00 8.9 2 Norte 9 Norte 0 -- -- 100
2020-01-19 02:00:00 8.6 0 Calma 12 Nordeste 0 -- -- 100
2020-01-19 01:00:00 8.9 0 Calma 9 Sudoeste 0 -- -- 100
2020-01-19 00:00:00 9 0 Calma 7 Noroeste 0 -- -- 100
2020-01-18 23:00:00 9.4 0 Calma 11 Oeste 0 -- -- 100
2020-01-18 22:00:00 9.6 3 Noroeste 9 Este 0 -- -- 100
2020-01-18 21:00:00 9.8 0 Calma 8 Oeste 0 -- -- 100
2020-01-18 20:00:00 9.9 0 Calma 12 Noroeste 0 -- -- 100
2020-01-18 19:00:00 9.8 2 Noroeste 16 Oeste 0 -- -- 99
2020-01-18 18:00:00 9.9 0 Calma 18 Noroeste 0 -- -- 98
2020-01-18 17:00:00 9.9 3 Noroeste 20 Noroeste 0 -- -- 97
2020-01-18 16:00:00 11.1 5 Noroeste 21 Noroeste 0 -- -- 92
2020-01-18 15:00:00 11.8 5 Noroeste 21 Oeste 0 -- -- 85
2020-01-18 14:00:00 11.3 3 Noroeste 28 Oeste 0 -- -- 96
2020-01-18 13:00:00 13 5 Noroeste 24 Oeste 0 -- -- 95
2020-01-18 12:00:00 12.6 5 Noroeste 36 Sudoeste 0 -- -- 98
2020-01-18 11:00:00 13.8 8 Sudoeste 31 Sudoeste 0 -- -- 93
2020-01-18 10:00:00 12.4 14 Sur 32 Sur 0 -- -- 96
2020-01-18 09:00:00 10.9 10 Sur 30 Sur 0 -- -- 98
2020-01-18 08:00:00 10.3 11 Sudeste 26 Sudeste 0 -- -- 96
2020-01-18 07:00:00 10 7 Sudeste 20 Sudeste 0 -- -- 94
2020-01-18 06:00:00 10.1 2 Sudoeste 19 Sur 0 -- -- 87
2020-01-18 05:00:00 9.4 2 Sudeste 16 Sudeste 0 -- -- 87
2020-01-18 04:00:00 9.7 5 Sur 27 Sur 0 -- -- 82
2020-01-18 03:00:00 9 2 Oeste 18 Sudeste 0 -- -- 88
2020-01-18 02:00:00 9.4 6 Sur 17 Sudoeste 0 -- -- 81
2020-01-18 01:00:00 8.7 6 Sudeste 14 Sudeste 0 -- -- 88
2020-01-18 00:00:00 9.2 2 Sudoeste 10 Sudeste 0 -- -- 84
2020-01-17 23:00:00 8.9 5 Sudeste 9 Sudeste 0 -- -- 86
2020-01-17 22:00:00 8.7 3 Sudeste 8 Sudeste 0 -- -- 88
2020-01-17 21:00:00 8.7 0 Calma 8 Sudeste 0 -- -- 88
2020-01-17 20:00:00 9 4 Sudeste 12 Sudeste 0 -- -- 85
2020-01-17 19:00:00 9.1 3 Sudeste 8 Este 0 -- -- 88
2020-01-17 18:00:00 9.8 2 Sudeste 6 Sudeste 0 -- -- 89
2020-01-17 17:00:00 10.4 0 Calma 4 Sur 0 -- -- 86
2020-01-17 16:00:00 10.6 0 Calma 7 Sur 0 -- -- 79
2020-01-17 15:00:00 10.6 0 Calma 5 Oeste 0 -- -- 83
2020-01-17 14:00:00 10.7 0 Calma 6 Sur 0 -- -- 86
2020-01-17 13:00:00 10.7 2 Sur 5 Sur 0 -- -- 83
2020-01-17 12:00:00 10.1 0 Calma 7 Sudeste 0 -- -- 88
2020-01-17 11:00:00 7.5 3 Sudeste 10 Sudeste 0.2 -- -- 97
2020-01-17 10:00:00 6.7 2 Sudeste 7 Oeste 0 -- -- 96
2020-01-17 09:00:00 6.7 0 Calma 3 Este 0 -- -- 95
2020-01-17 08:00:00 7.3 2 Sudeste 8 Noroeste 0 -- -- 91
2020-01-17 07:00:00 7.7 2 Norte 9 Noroeste 0 -- -- 93
2020-01-17 06:00:00 8.2 2 Noroeste 16 Oeste 0 -- -- 91
2020-01-17 05:00:00 8.4 2 Noroeste 16 Oeste 0 -- -- 91
2020-01-17 04:00:00 8.7 2 Noroeste 16 Sudoeste 0 -- -- 91
2020-01-17 03:00:00 9 3 Noroeste 24 Oeste 0 -- -- 94
2020-01-17 02:00:00 9.5 3 Noroeste 17 Noroeste 0.2 -- -- 93
2020-01-17 01:00:00 9.4 3 Noroeste 18 Sudoeste 0.4 -- -- 96
2020-01-17 00:00:00 9.9 0 Calma 24 Sudoeste 0 -- -- 92
2020-01-16 23:00:00 10.9 5 Sudoeste 23 Sudoeste 0 -- -- 92
2020-01-16 22:00:00 11.3 5 Sudoeste 31 Sudoeste 0.2 -- -- 94
2020-01-16 21:00:00 10.6 4 Oeste 24 Sudoeste 0.4 -- -- 100
2020-01-16 20:00:00 9.9 3 Sur 15 Sur 0.8 -- -- 100
2020-01-16 19:00:00 9.8 4 Sudeste 8 Sudeste 0 -- -- 100
2020-01-16 18:00:00 10.1 2 Oeste 25 Sur 1 -- -- 100
2020-01-16 17:00:00 9.6 11 Sur 27 Oeste 9.4 -- -- 99
2020-01-16 16:00:00 11.8 7 Noroeste 45 Sur 32.8 -- -- 100
2020-01-16 15:00:00 12.5 9 Sudoeste 36 Sudoeste 7.6 -- -- 100
2020-01-16 14:00:00 12.2 9 Sudoeste 42 Sur 8.8 -- -- 98
2020-01-16 13:00:00 11.1 10 Sur 43 Sudoeste 15 -- -- 98
2020-01-16 12:00:00 11.7 7 Sudoeste 48 Sudoeste 15.4 -- -- 97
2020-01-16 11:00:00 13.5 13 Sudoeste 56 Sur 8.6 -- -- 99
2020-01-16 10:00:00 13.7 25 Sur 58 Sur 5.4 -- -- 98
2020-01-16 09:00:00 14 24 Sur 63 Sur 0.6 -- -- 95
2020-01-16 08:00:00 14.2 21 Sur 62 Sudeste 0 -- -- 92
2020-01-16 07:00:00 14 18 Sur 75 Sur 0.2 -- -- 94
2020-01-16 06:00:00 13.8 17 Sur 52 Sur 0.2 -- -- 98
2020-01-16 05:00:00 13.7 17 Sur 50 Sur 0.2 -- -- 100
2020-01-16 04:00:00 13.9 17 Sur 50 Sur 0.6 -- -- 99
2020-01-16 03:00:00 13.9 14 Sur 60 Sur 2 -- -- 100
2020-01-16 02:00:00 13.8 16 Sur 48 Sudeste 1.6 -- -- 99
2020-01-16 01:00:00 13.5 15 Sur 45 Sur 0 -- -- 95
2020-01-16 00:00:00 13.3 11 Sur 50 Sur 0.6 -- -- 98
2020-01-15 23:00:00 13.5 14 Sur 32 Sur 0 -- -- 99
2020-01-15 22:00:00 12.2 4 Sur 13 Sur 0.2 -- -- 97
2020-01-15 21:00:00 11.9 5 Sur 13 Sur 0 -- -- 95
2020-01-15 20:00:00 11.3 5 Sudeste 11 Sudeste 0 -- -- 94
2020-01-15 19:00:00 11.2 3 Sur 13 Sur 0 -- -- 90
2020-01-15 18:00:00 11.9 7 Sudeste 18 Sudeste 0 -- -- 84
2020-01-15 17:00:00 12.6 6 Sur 22 Sur 0 -- -- 79
2020-01-15 16:00:00 12.3 4 Sur 12 Sur 0 -- -- 83
2020-01-15 15:00:00 11.4 0 Calma 7 Noroeste 0 -- -- 90
2020-01-15 14:00:00 11.8 2 Noroeste 8 Oeste 0 -- -- 88
2020-01-15 13:00:00 12.2 0 Calma 5 Oeste 0 -- -- 91
2020-01-15 12:00:00 11.6 0 Calma 4 Sudoeste 0 -- -- 100
2020-01-15 11:00:00 9.3 0 Calma 5 Sudeste 0 -- -- 100
2020-01-15 10:00:00 8.6 3 Sudeste 5 Sudeste 0 -- -- 100
2020-01-15 09:00:00 8.6 3 Sudeste 4 Sudeste 0 -- -- 100
2020-01-15 08:00:00 9.4 2 Nordeste 5 Norte 0 -- -- 99
2020-01-15 07:00:00 10.4 0 Calma 8 Noroeste 0.2 -- -- 99
2020-01-15 06:00:00 11.2 2 Noroeste 32 Sudoeste 2.6 -- -- 97
2020-01-15 05:00:00 13 10 Sudoeste 37 Sudoeste 0.2 -- -- 92
2020-01-15 04:00:00 12.6 12 Sudoeste 41 Sudoeste 3 -- -- 96
2020-01-15 03:00:00 12.7 14 Sudoeste 64 Sur 5.8 -- -- 95
2020-01-15 02:00:00 13.1 18 Sur 54 Sudoeste 0.4 -- -- 95
2020-01-15 01:00:00 13.5 18 Sur 57 Sudoeste 0 -- -- 93
2020-01-15 00:00:00 13.4 18 Sudoeste 48 Sudoeste 0 -- -- 92
2020-01-14 23:00:00 13.1 15 Sudoeste 51 Sur 0.2 -- -- 92
2020-01-14 22:00:00 12.8 19 Sur 53 Sur 0.2 -- -- 94
2020-01-14 21:00:00 12.4 14 Sur 57 Sudoeste 1.2 -- -- 96
2020-01-14 20:00:00 12.4 19 Sur 56 Sur 0.8 -- -- 94
2020-01-14 19:00:00 12.6 17 Sur 55 Sur 0 -- -- 91
2020-01-14 18:00:00 12.5 19 Sur 55 Sur 0.4 -- -- 92
2020-01-14 17:00:00 12.9 19 Sur 64 Sur 0 -- -- 90
2020-01-14 16:00:00 13 17 Sur 55 Sur 0 -- -- 90
2020-01-14 15:00:00 13.2 18 Sur 57 Sur 0 -- -- 89
2020-01-14 14:00:00 12.6 19 Sur 54 Sudeste 0 -- -- 90
2020-01-14 13:00:00 12.5 16 Sur 49 Sur 0 -- -- 92
2020-01-14 12:00:00 12.5 12 Sur 51 Sur 0 -- -- 92
2020-01-14 11:00:00 12.3 14 Sur 50 Sur 0 -- -- 92
2020-01-14 10:00:00 12 17 Sur 53 Sudoeste 0.4 -- -- 94
2020-01-14 09:00:00 11.7 17 Sur 45 Sudoeste 0.2 -- -- 96
2020-01-14 08:00:00 11.6 18 Sur 51 Sur 0.4 -- -- 96
2020-01-14 07:00:00 11.6 17 Sur 50 Sur 0.8 -- -- 97
2020-01-14 06:00:00 11.6 13 Sudoeste 45 Sur 0.6 -- -- 97
2020-01-14 05:00:00 11.6 17 Sur 59 Sur 0.4 -- -- 96
2020-01-14 04:00:00 11.4 17 Sur 49 Sur 0.4 -- -- 97
2020-01-14 03:00:00 11.1 15 Sur 51 Sur 0.8 -- -- 98
2020-01-14 02:00:00 11.2 16 Sur 57 Sur 0.6 -- -- 97
2020-01-14 01:00:00 11.1 17 Sur 46 Sur 0.8 -- -- 98
2020-01-14 00:00:00 11.2 15 Sur 41 Sur 0.8 -- -- 99
2020-01-13 23:00:00 11 16 Sur 49 Sur 0.4 -- -- 99
2020-01-13 22:00:00 11.1 14 Sur 39 Sudeste 0.4 -- -- 99
2020-01-13 21:00:00 10.8 14 Sur 49 Sur 0.4 -- -- 99
2020-01-13 20:00:00 10.4 18 Sur 47 Sur 0.8 -- -- 99
2020-01-13 19:00:00 10.1 21 Sur 54 Sur 0.2 -- -- 97
2020-01-13 18:00:00 10 18 Sur 53 Sur 0.2 -- -- 96
2020-01-13 17:00:00 10.2 18 Sur 49 Sur 0 -- -- 92
2020-01-13 16:00:00 10.5 10 Sudoeste 44 Sur 0 -- -- 87
2020-01-13 15:00:00 10.3 11 Sudoeste 39 Sudoeste 0 -- -- 88
2020-01-13 14:00:00 10.3 11 Sudoeste 37 Sudoeste 0 -- -- 87
2020-01-13 13:00:00 9.6 8 Sudoeste 30 Sudoeste 0 -- -- 87
2020-01-13 12:00:00 9.3 4 Sudoeste 27 Sur 0 -- -- 90
2020-01-13 11:00:00 9.3 7 Sudoeste 30 Sudoeste 0 -- -- 91
2020-01-13 10:00:00 8.7 5 Sur 29 Sur 0 -- -- 97
2020-01-13 09:00:00 8.4 3 Sudeste 18 Sur 0 -- -- 97
2020-01-13 08:00:00 8.3 4 Sur 16 Sur 0.2 -- -- 98
2020-01-13 07:00:00 8.3 3 Sudeste 17 Sur 0 -- -- 98
2020-01-13 06:00:00 8.8 3 Sudeste 18 Sur 0 -- -- 99
2020-01-13 05:00:00 9.1 8 Sudeste 21 Sur 0.2 -- -- 98
2020-01-13 04:00:00 9.2 8 Sudeste 21 Sudeste 0.2 -- -- 96
2020-01-13 03:00:00 9.3 10 Sudeste 23 Sudeste 0 -- -- 94
2020-01-13 02:00:00 9.5 10 Sudeste 23 Sudeste 0 -- -- 95
2020-01-13 01:00:00 9.7 6 Sudeste 17 Sudeste 0 -- -- 96
2020-01-13 00:00:00 9.7 6 Sudeste 14 Sudeste 0 -- -- 97
2020-01-12 23:00:00 9.7 4 Sur 10 Sur 0 -- -- 97
2020-01-12 22:00:00 9.8 5 Sudeste 12 Sudeste 0 -- -- 96
2020-01-12 21:00:00 9.8 4 Sur 10 Sur 0 -- -- 96
2020-01-12 20:00:00 9.8 4 Sur 11 Sudeste 0 -- -- 94
2020-01-12 19:00:00 10.1 5 Sudeste 9 Sudeste 0 -- -- 92
2020-01-12 18:00:00 10.6 0 Calma 10 Noroeste 0 -- -- 92
2020-01-12 17:00:00 11.1 0 Calma 9 Oeste 0 -- -- 92
2020-01-12 16:00:00 11.4 0 Calma 6 Oeste 0 -- -- 90
2020-01-12 15:00:00 11.4 2 Sudoeste 9 Sur 0 -- -- 87
2020-01-12 14:00:00 11.1 0 Calma 8 Sur 0 -- -- 87
2020-01-12 13:00:00 10.4 4 Sur 10 Sur 0 -- -- 88
2020-01-12 12:00:00 9.3 4 Sudeste 9 Sudeste 0 -- -- 90
2020-01-12 11:00:00 8.4 4 Sudeste 8 Sur 0 -- -- 96
2020-01-12 10:00:00 6.9 2 Sur 6 Sudeste 0 -- -- 99
2020-01-12 09:00:00 6.4 3 Sudeste 6 Sur 0 -- -- 98
2020-01-12 08:00:00 5.8 5 Sudeste 8 Sudeste 0 -- -- 100
2020-01-12 07:00:00 5.3 0 Calma 4 Sudeste 0 -- -- 100
2020-01-12 06:00:00 5.8 3 Sudeste 6 Sur 0 -- -- 100
2020-01-12 05:00:00 5.1 0 Calma 6 Sudeste 0 -- -- 100
2020-01-12 04:00:00 5.4 0 Calma 7 Sudeste 0 -- -- 100
2020-01-12 03:00:00 5.1 0 Calma 3 Nordeste 0 -- -- 100
2020-01-12 02:00:00 5.4 0 Calma 3 Este 0 -- -- 99
2020-01-12 01:00:00 6.2 0 Calma 8 Sudeste 0 -- -- 98
2020-01-12 00:00:00 6.3 5 Sudeste 10 Sudeste 0 -- -- 99
2020-01-11 23:00:00 5.8 0 Calma 6 Sudeste 0 -- -- 98
2020-01-11 22:00:00 5.9 0 Calma 2 Este 0 -- -- 98
2020-01-11 21:00:00 6.3 0 Calma 3 Este 0 -- -- 97
2020-01-11 20:00:00 7.1 0 Calma 3 Este 0 -- -- 96
2020-01-11 19:00:00 8 0 Calma 4 Norte 0 -- -- 94
2020-01-11 18:00:00 9.4 0 Calma 5 Oeste 0 -- -- 89
2020-01-11 17:00:00 9.9 2 Noroeste 10 Noroeste 0 -- -- 85
2020-01-11 16:00:00 11 0 Calma 8 Noroeste 0 -- -- 81
2020-01-11 15:00:00 10.3 0 Calma 5 Oeste 0 -- -- 82
2020-01-11 14:00:00 10.3 0 Calma 5 Oeste 0 -- -- 83
2020-01-11 13:00:00 10.3 0 Calma 4 Sur 0 -- -- 86
2020-01-11 12:00:00 7.6 0 Calma 0 Calma 0 -- -- 100
2020-01-11 11:00:00 4.4 0 Calma 3 Sudeste 0 -- -- 100
2020-01-11 10:00:00 3.5 0 Calma 3 Este 0 -- -- 100
2020-01-11 09:00:00 2.9 0 Calma 3 Este 0 -- -- 99
2020-01-11 08:00:00 3.2 0 Calma 2 Este 0 -- -- 99
2020-01-11 07:00:00 3.5 0 Calma 7 Sudeste 0 -- -- 98
2020-01-11 06:00:00 4.1 0 Calma 5 Este 0 -- -- 97
2020-01-11 05:00:00 4.8 4 Este 9 Nordeste 0 -- -- 97
2020-01-11 04:00:00 5.3 3 Este 9 Nordeste 0 -- -- 95
2020-01-11 03:00:00 5.8 3 Este 12 Nordeste 0 -- -- 94
2020-01-11 02:00:00 6 4 Este 10 Este 0 -- -- 95
2020-01-11 01:00:00 6.2 4 Nordeste 12 Nordeste 0 -- -- 95
2020-01-11 00:00:00 5.5 3 Nordeste 9 Nordeste 0 -- -- 96
2020-01-10 23:00:00 5.8 3 Este 6 Nordeste 0 -- -- 96
2020-01-10 22:00:00 5.9 2 Sudeste 8 Nordeste 0 -- -- 93
2020-01-10 21:00:00 6.3 2 Nordeste 4 Nordeste 0 -- -- 94
2020-01-10 20:00:00 7 0 Calma 3 Este 0 -- -- 93
2020-01-10 19:00:00 8.1 0 Calma 4 Este 0 -- -- 89
2020-01-10 18:00:00 10 2 Nordeste 4 Nordeste 0 -- -- 85
2020-01-10 17:00:00 11.5 2 Nordeste 10 Sudeste 0 -- -- 71
2020-01-10 16:00:00 11.6 0 Calma 16 Sudeste 0 -- -- 73
2020-01-10 15:00:00 11.4 4 Nordeste 13 Nordeste 0 -- -- 74
2020-01-10 14:00:00 11.4 5 Este 12 Este 0 -- -- 76
2020-01-10 13:00:00 10.9 3 Norte 13 Este 0 -- -- 87
2020-01-10 12:00:00 9.7 0 Calma 8 Este 0 -- -- 100
2020-01-10 11:00:00 6.3 0 Calma 7 Sudeste 0 -- -- 100
2020-01-10 10:00:00 6.6 3 Este 8 Nordeste 0 -- -- 100
2020-01-10 09:00:00 5.3 3 Nordeste 6 Este 0 -- -- 100
2020-01-10 08:00:00 5.4 0 Calma 5 Sudeste 0 -- -- 100
2020-01-10 07:00:00 5.3 2 Nordeste 3 Este 0 -- -- 100
2020-01-10 06:00:00 5.3 0 Calma 3 Nordeste 0 -- -- 100
2020-01-10 05:00:00 5.7 2 Este 3 Sudeste 0 -- -- 100
2020-01-10 04:00:00 5.6 0 Calma 3 Este 0 -- -- 100
2020-01-10 03:00:00 6.3 0 Calma 4 Este 0.2 -- -- 100
2020-01-10 02:00:00 6.7 0 Calma 3 Este 0 -- -- 100
2020-01-10 01:00:00 6.8 0 Calma 4 Este 0 -- -- 99
2020-01-10 00:00:00 7.3 0 Calma 4 Sudeste 0 -- -- 98
2020-01-09 23:00:00 7.7 2 Este 6 Oeste 0.2 -- -- 96
2020-01-09 22:00:00 7.9 2 Sudeste 4 Nordeste 0 -- -- 93
2020-01-09 21:00:00 7.6 2 Nordeste 4 Sudeste 0 -- -- 92
2020-01-09 20:00:00 7.8 0 Calma 12 Oeste 0 -- -- 92
2020-01-09 19:00:00 8.7 0 Calma 14 Oeste 0 -- -- 90
2020-01-09 18:00:00 9.6 2 Noroeste 11 Noroeste 0 -- -- 89
2020-01-09 17:00:00 10 3 Noroeste 19 Noroeste 0 -- -- 86
2020-01-09 16:00:00 11.1 2 Norte 14 Oeste 0 -- -- 89
2020-01-09 15:00:00 10.8 4 Noroeste 28 Noroeste 0 -- -- 88
2020-01-09 14:00:00 11.7 6 Noroeste 33 Oeste 0 -- -- 92
2020-01-09 13:00:00 13 6 Noroeste 33 Norte 0 -- -- 100
2020-01-09 12:00:00 13.3 8 Oeste 32 Sudoeste 0.2 -- -- 100
2020-01-09 11:00:00 13 6 Oeste 40 Sur 0.6 -- -- 100
2020-01-09 10:00:00 12.6 9 Sur 32 Sudoeste 0.2 -- -- 100
2020-01-09 09:00:00 12.2 9 Sur 25 Sur 0.6 -- -- 100
2020-01-09 08:00:00 12.1 9 Sur 21 Sur 0 -- -- 100
2020-01-09 07:00:00 12.1 5 Sudoeste 21 Sudeste 0 -- -- 100
2020-01-09 06:00:00 12.1 3 Sur 14 Sur 0 -- -- 100
2020-01-09 05:00:00 11.9 9 Sur 18 Sur 0 -- -- 100
2020-01-09 04:00:00 12 6 Sur 18 Sudeste 0 -- -- 100
2020-01-09 03:00:00 11.9 5 Sur 22 Sur 0.4 -- -- 100
2020-01-09 02:00:00 11.8 6 Sudeste 16 Sur 0.2 -- -- 100
2020-01-09 01:00:00 11.7 5 Sudeste 13 Sur 0 -- -- 100
2020-01-09 00:00:00 11.6 4 Sudeste 14 Sur 0.2 -- -- 100
2020-01-08 23:00:00 11.5 7 Sudeste 13 Sudeste 0.2 -- -- 100
2020-01-08 22:00:00 11.3 6 Sudeste 13 Sudeste 0 -- -- 100
2020-01-08 21:00:00 11.3 6 Sudeste 13 Sudeste 0.2 -- -- 100
2020-01-08 20:00:00 11.4 5 Sudeste 11 Sudeste 0 -- -- 100
2020-01-08 19:00:00 11.3 3 Sudeste 8 Sur 0.2 -- -- 100
2020-01-08 18:00:00 11.5 5 Sur 9 Sur 0 -- -- 100
2020-01-08 17:00:00 11.6 0 Calma 3 Oeste 0 -- -- 100
2020-01-08 16:00:00 11.8 0 Calma 2 Oeste 0 -- -- 100
2020-01-08 15:00:00 11.9 0 Calma 3 Noroeste 0 -- -- 100
2020-01-08 14:00:00 12.1 0 Calma 4 Oeste 0.2 -- -- 100
2020-01-08 13:00:00 11.9 0 Calma 5 Sur 0 -- -- 100
2020-01-08 12:00:00 11.4 3 Sudeste 8 Sudeste 0 -- -- 100
2020-01-08 11:00:00 10.9 3 Sudeste 10 Sudeste 0.2 -- -- 100
2020-01-08 10:00:00 10.5 3 Sudeste 8 Sudeste 0 -- -- 100
2020-01-08 09:00:00 10.1 4 Sudeste 11 Sudeste 0.2 -- -- 100
2020-01-08 08:00:00 10 5 Sudeste 11 Sudeste 0 -- -- 100
2020-01-08 07:00:00 9.9 6 Sudeste 12 Sudeste 0.2 -- -- 100
2020-01-08 06:00:00 9.9 4 Sudeste 9 Sudeste 0 -- -- 100
2020-01-08 05:00:00 9.9 5 Sudeste 9 Sudeste 0.2 -- -- 100
2020-01-08 04:00:00 9.9 4 Sudeste 10 Sudeste 0 -- -- 100
2020-01-08 03:00:00 9.9 0 Calma 6 Sur 0 -- -- 100
2020-01-08 02:00:00 9.9 3 Sudeste 4 Sudeste 0 -- -- 99
2020-01-08 01:00:00 9.9 0 Calma 5 Sudeste 0 -- -- 98
2020-01-08 00:00:00 10 3 Sudeste 5 Sudeste 0 -- -- 96
2020-01-07 23:00:00 10 0 Calma 4 Sudeste 0 -- -- 94
2020-01-07 22:00:00 10.1 3 Sudeste 5 Sudeste 0 -- -- 94
2020-01-07 21:00:00 10.3 0 Calma 7 Sudeste 0 -- -- 93
2020-01-07 20:00:00 10.5 4 Sudeste 10 Sudeste 0 -- -- 92
2020-01-07 19:00:00 10.3 4 Sudeste 13 Sudeste 0 -- -- 94
2020-01-07 18:00:00 10.1 4 Sudeste 12 Sudeste 0 -- -- 91
2020-01-07 17:00:00 10.2 5 Sudeste 14 Sudeste 0 -- -- 90
2020-01-07 16:00:00 10.3 6 Sudeste 11 Sur 0 -- -- 89
2020-01-07 15:00:00 10.4 4 Sudeste 11 Sur 0 -- -- 90
2020-01-07 14:00:00 10.4 5 Sudeste 10 Sudeste 0 -- -- 90
2020-01-07 13:00:00 10.3 3 Sur 12 Sudoeste 0 -- -- 91
2020-01-07 12:00:00 9.5 2 Sur 5 Sur 0 -- -- 93
2020-01-07 11:00:00 8.3 0 Calma 7 Noroeste 0 -- -- 95
2020-01-07 10:00:00 8.3 2 Sur 8 Sudeste 0 -- -- 94
2020-01-07 09:00:00 7.4 5 Sudeste 10 Sudeste 0 -- -- 94
2020-01-07 08:00:00 7.2 5 Sudeste 10 Sudeste 0 -- -- 98
2020-01-07 07:00:00 6.1 4 Sudeste 9 Sudeste 0 -- -- 100
2020-01-07 06:00:00 5.9 0 Calma 3 Este 0 -- -- 100
2020-01-07 05:00:00 5.1 0 Calma 2 Sudeste 0 -- -- 100
2020-01-07 04:00:00 5.3 0 Calma 2 Sudeste 0 -- -- 99
2020-01-07 03:00:00 5.6 0 Calma 4 Sudeste 0 -- -- 99
2020-01-07 02:00:00 5.8 0 Calma 4 Sudeste 0 -- -- 98
2020-01-07 01:00:00 6.1 0 Calma 3 Sur 0 -- -- 98
2020-01-07 00:00:00 6.7 0 Calma 4 Este 0 -- -- 97
2020-01-06 23:00:00 7.3 2 Sudeste 6 Sudeste 0 -- -- 96
2020-01-06 22:00:00 8.2 3 Sudeste 8 Sudeste 0 -- -- 93
2020-01-06 21:00:00 8.9 3 Sudeste 11 Sudeste 0 -- -- 91
2020-01-06 20:00:00 9.8 5 Sudeste 10 Sudeste 0 -- -- 89
2020-01-06 19:00:00 10.1 5 Sudeste 8 Sudeste 0 -- -- 89
2020-01-06 18:00:00 10.5 3 Sudeste 6 Sudeste 0 -- -- 88
2020-01-06 17:00:00 10.8 3 Sudeste 5 Sudeste 0 -- -- 88
2020-01-06 16:00:00 11 0 Calma 9 Oeste 0 -- -- 89
2020-01-06 15:00:00 11.3 3 Sudoeste 19 Sur 0 -- -- 86
2020-01-06 14:00:00 10.8 3 Sudoeste 16 Sur 0 -- -- 91
2020-01-06 13:00:00 9.2 6 Sudeste 12 Sudeste 0 -- -- 99
2020-01-06 12:00:00 7.9 3 Sudeste 8 Sudeste 0 -- -- 100
2020-01-06 11:00:00 7.3 4 Sudeste 6 Sudeste 0 -- -- 100
2020-01-06 10:00:00 6.9 3 Sudeste 7 Sudeste 0 -- -- 100